Time;durP1;ratioP1;P1;durP2;ratioP2;P2;SDS_P1;SDS_P2;PMS_P1;PMS_P2;Temp;Humidity;BMP_temperature;BMP_pressure;BME280_temperature;BME280_humidity;BME280_pressure;Samples;Min_cycle;Max_cycle;Signal;HPM_P1;HPM_P2
2023/12/23 00:01:08;;;;;;;;;;;20.00;45.10;;;;;;5031425;28;19960;-60
2023/12/23 00:03:36;;;;;;;;;;;20.00;45.10;;;;;;5025878;28;19987;-60
2023/12/23 00:06:04;;;;;;;;;;;20.00;45.10;;;;;;5028619;28;19948;-60
2023/12/23 00:08:31;;;;;;;;;;;20.00;45.10;;;;;;5028268;28;19972;-61
2023/12/23 00:10:58;;;;;;;;;;;20.00;45.10;;;;;;5033207;28;19921;-61
2023/12/23 00:13:24;;;;;;;;;;;20.00;45.10;;;;;;5030626;28;19921;-61
2023/12/23 00:15:51;;;;;;;;;;;20.00;45.10;;;;;;5030306;28;19925;-62
2023/12/23 00:18:18;;;;;;;;;;;20.00;45.10;;;;;;5030348;28;20012;-62
2023/12/23 00:20:45;;;;;;;;;;;20.00;45.10;;;;;;5026583;28;19921;-61
2023/12/23 00:23:13;;;;;;;;;;;20.00;45.10;;;;;;5029180;28;19986;-60
2023/12/23 00:25:40;;;;;;;;;;;20.00;45.10;;;;;;5029824;28;19956;-60
2023/12/23 00:28:07;;;;;;;;;;;20.00;45.20;;;;;;5029490;28;19921;-60
2023/12/23 00:30:33;;;;;;;;;;;20.00;45.20;;;;;;5029975;28;19937;-61
2023/12/23 00:33:02;;;;;;;;;;;20.00;45.20;;;;;;5029002;28;19921;-61
2023/12/23 00:35:29;;;;;;;;;;;20.00;45.20;;;;;;5029679;28;19928;-61
2023/12/23 00:37:55;;;;;;;;;;;20.00;45.20;;;;;;5029940;28;20422;-60
2023/12/23 00:40:24;;;;;;;;;;;20.00;45.20;;;;;;5019994;28;19925;-61
2023/12/23 00:42:51;;;;;;;;;;;20.00;45.20;;;;;;5031109;28;19929;-61
2023/12/23 00:45:17;;;;;;;;;;;20.00;45.20;;;;;;5028749;28;19921;-61
2023/12/23 00:47:44;;;;;;;;;;;20.00;45.20;;;;;;5029917;28;20003;-61
2023/12/23 00:50:10;;;;;;;;;;;20.00;45.20;;;;;;5030009;28;19921;-61
2023/12/23 00:52:36;;;;;;;;;;;20.00;45.20;;;;;;5029404;28;19927;-61
2023/12/23 00:55:03;;;;;;;;;;;20.00;45.20;;;;;;5030299;28;19982;-61
2023/12/23 00:57:31;;;;;;;;;;;20.00;45.10;;;;;;5023561;28;19933;-61
2023/12/23 00:59:58;;;;;;;;;;;20.00;45.10;;;;;;5025061;28;19925;-60
2023/12/23 01:02:25;;;;;;;;;;;20.00;45.20;;;;;;5029117;28;19921;-61
2023/12/23 01:04:54;;;;;;;;;;;20.00;45.20;;;;;;5029818;28;19925;-60
2023/12/23 01:07:21;;;;;;;;;;;20.00;45.20;;;;;;5033682;28;20323;-60
2023/12/23 01:09:48;;;;;;;;;;;20.00;45.10;;;;;;5034285;28;19921;-61
2023/12/23 01:12:14;;;;;;;;;;;20.00;45.10;;;;;;5032633;28;19979;-61
2023/12/23 01:14:42;;;;;;;;;;;20.00;45.10;;;;;;5034847;28;19990;-60
2023/12/23 01:17:09;;;;;;;;;;;20.00;45.10;;;;;;5030766;28;19921;-60
2023/12/23 01:19:36;;;;;;;;;;;20.00;45.10;;;;;;5033131;28;19932;-60
2023/12/23 01:22:03;;;;;;;;;;;20.00;45.10;;;;;;5032684;28;19925;-61
2023/12/23 01:24:30;;;;;;;;;;;20.00;45.10;;;;;;5034616;28;19952;-60
2023/12/23 01:26:57;;;;;;;;;;;20.00;45.10;;;;;;5034452;28;19927;-60
2023/12/23 01:29:23;;;;;;;;;;;20.00;45.10;;;;;;5033713;28;19932;-60
2023/12/23 01:31:52;;;;;;;;;;;20.00;45.10;;;;;;5029678;28;19928;-60
2023/12/23 01:34:18;;;;;;;;;;;20.00;45.10;;;;;;5031372;28;19921;-60
2023/12/23 01:36:45;;;;;;;;;;;20.00;45.10;;;;;;5034243;28;19929;-60
2023/12/23 01:39:12;;;;;;;;;;;19.90;45.00;;;;;;5032374;28;19933;-60
2023/12/23 01:41:38;;;;;;;;;;;20.00;45.10;;;;;;5030948;28;19979;-61
2023/12/23 01:44:05;;;;;;;;;;;20.00;45.10;;;;;;5032614;28;19928;-61
2023/12/23 01:46:32;;;;;;;;;;;20.00;45.10;;;;;;5032781;28;19921;-61
2023/12/23 01:49:00;;;;;;;;;;;20.00;45.10;;;;;;5031142;28;19933;-60
2023/12/23 01:51:28;;;;;;;;;;;20.00;45.10;;;;;;5032438;28;19921;-60
2023/12/23 01:53:55;;;;;;;;;;;20.00;45.10;;;;;;5032881;28;19921;-60
2023/12/23 01:56:21;;;;;;;;;;;19.90;45.00;;;;;;5032095;28;20176;-60
2023/12/23 01:58:48;;;;;;;;;;;20.00;45.10;;;;;;5033511;28;19925;-60
2023/12/23 02:01:15;;;;;;;;;;;20.00;45.10;;;;;;5033929;28;19975;-60
2023/12/23 02:03:42;;;;;;;;;;;19.90;45.00;;;;;;5032111;28;19933;-60
2023/12/23 02:06:10;;;;;;;;;;;20.00;45.00;;;;;;5033104;28;19921;-61
2023/12/23 02:08:37;;;;;;;;;;;20.00;45.10;;;;;;5032656;28;19928;-60
2023/12/23 02:11:04;;;;;;;;;;;20.00;45.00;;;;;;5027473;28;19929;-61
2023/12/23 02:13:32;;;;;;;;;;;19.90;44.90;;;;;;5033561;28;19921;-60
2023/12/23 02:15:58;;;;;;;;;;;20.00;45.00;;;;;;5033828;28;19940;-60
2023/12/23 02:18:25;;;;;;;;;;;20.00;45.00;;;;;;5028889;28;19921;-61
2023/12/23 02:20:53;;;;;;;;;;;19.90;44.90;;;;;;5013384;28;20015;-60
2023/12/23 02:23:20;;;;;;;;;;;20.00;45.00;;;;;;5032273;28;19932;-60
2023/12/23 02:25:52;;;;;;;;;;;20.00;45.00;;;;;;5032249;28;19933;-61
2023/12/23 02:28:18;;;;;;;;;;;20.00;45.00;;;;;;5031399;28;19964;-60
2023/12/23 02:30:45;;;;;;;;;;;20.00;45.00;;;;;;5031673;28;19921;-60
2023/12/23 02:33:12;;;;;;;;;;;20.00;45.00;;;;;;5031797;28;19975;-61
2023/12/23 02:35:39;;;;;;;;;;;19.90;44.90;;;;;;5031227;28;19933;-60
2023/12/23 02:38:07;;;;;;;;;;;20.00;45.00;;;;;;5030828;28;20321;-60
2023/12/23 02:40:34;;;;;;;;;;;19.90;44.90;;;;;;5030204;28;19956;-61
2023/12/23 02:43:02;;;;;;;;;;;19.90;44.80;;;;;;5027927;28;19921;-60
2023/12/23 02:45:28;;;;;;;;;;;19.90;44.80;;;;;;5031767;28;20446;-60
2023/12/23 02:47:55;;;;;;;;;;;20.00;44.90;;;;;;5031968;28;19921;-60
2023/12/23 02:50:22;;;;;;;;;;;20.00;44.90;;;;;;5031873;28;19944;-61
2023/12/23 02:52:48;;;;;;;;;;;20.00;44.90;;;;;;5030763;28;19972;-60
2023/12/23 02:55:18;;;;;;;;;;;20.00;44.90;;;;;;5030805;28;19925;-60
2023/12/23 02:57:45;;;;;;;;;;;19.90;44.80;;;;;;5026597;28;19932;-60
2023/12/23 03:00:12;;;;;;;;;;;19.90;44.80;;;;;;5031440;28;19925;-60
2023/12/23 03:02:39;;;;;;;;;;;19.90;44.80;;;;;;5031262;28;19937;-60
2023/12/23 03:05:06;;;;;;;;;;;19.90;44.80;;;;;;5031122;28;19921;-61
2023/12/23 03:07:33;;;;;;;;;;;19.90;44.70;;;;;;5030911;28;19921;-60
2023/12/23 03:10:00;;;;;;;;;;;19.90;44.70;;;;;;5032226;28;21073;-60
2023/12/23 03:12:28;;;;;;;;;;;19.90;44.70;;;;;;5031456;28;19921;-60
2023/12/23 03:14:55;;;;;;;;;;;19.90;44.70;;;;;;5026251;28;19925;-60
2023/12/23 03:17:21;;;;;;;;;;;19.90;44.70;;;;;;5030058;28;20267;-60
2023/12/23 03:19:48;;;;;;;;;;;19.90;44.70;;;;;;5031826;28;19921;-60
2023/12/23 03:22:15;;;;;;;;;;;19.90;44.70;;;;;;5031325;28;19925;-61
2023/12/23 03:24:42;;;;;;;;;;;19.90;44.70;;;;;;5030072;28;19925;-60
2023/12/23 03:27:09;;;;;;;;;;;19.90;44.60;;;;;;5030368;28;19947;-60
2023/12/23 03:29:37;;;;;;;;;;;19.90;44.70;;;;;;5030403;28;19925;-61
2023/12/23 03:32:04;;;;;;;;;;;19.90;44.60;;;;;;5026029;28;19975;-60
2023/12/23 03:34:30;;;;;;;;;;;19.90;44.60;;;;;;5026614;28;19925;-60
2023/12/23 03:36:57;;;;;;;;;;;19.90;44.60;;;;;;5030013;28;19928;-60
2023/12/23 03:39:24;;;;;;;;;;;19.90;44.70;;;;;;5030430;28;20152;-61
2023/12/23 03:41:50;;;;;;;;;;;19.90;44.60;;;;;;5031338;28;19955;-60
2023/12/23 03:44:17;;;;;;;;;;;19.90;44.60;;;;;;5030899;28;19925;-60
2023/12/23 03:46:45;;;;;;;;;;;19.90;44.60;;;;;;5031474;28;19929;-60
2023/12/23 03:49:12;;;;;;;;;;;19.90;44.60;;;;;;5031099;28;19925;-61
2023/12/23 03:51:39;;;;;;;;;;;19.90;44.60;;;;;;5025375;28;19928;-60
2023/12/23 03:54:05;;;;;;;;;;;19.90;44.50;;;;;;5029572;28;19986;-60
2023/12/23 03:56:32;;;;;;;;;;;19.90;44.60;;;;;;5027642;28;19946;-60
2023/12/23 03:58:59;;;;;;;;;;;19.90;44.60;;;;;;5031257;28;19928;-60
2023/12/23 04:01:25;;;;;;;;;;;19.90;44.50;;;;;;5030535;28;19964;-60
2023/12/23 04:03:54;;;;;;;;;;;19.90;44.50;;;;;;5030283;28;19932;-60
2023/12/23 04:06:20;;;;;;;;;;;19.90;44.50;;;;;;5030418;28;19968;-60
2023/12/23 04:08:47;;;;;;;;;;;19.90;44.60;;;;;;5031014;28;19922;-60
2023/12/23 04:11:14;;;;;;;;;;;19.90;44.50;;;;;;5031625;28;19921;-60
2023/12/23 04:13:41;;;;;;;;;;;19.90;44.50;;;;;;5030129;28;19921;-60
2023/12/23 04:16:07;;;;;;;;;;;19.90;44.50;;;;;;5027805;28;19920;-60
2023/12/23 04:18:34;;;;;;;;;;;19.90;44.50;;;;;;5030627;28;19937;-60
2023/12/23 04:21:03;;;;;;;;;;;19.90;44.50;;;;;;5030881;28;19933;-61
2023/12/23 04:23:30;;;;;;;;;;;19.90;44.50;;;;;;5030251;28;19921;-60
2023/12/23 04:25:56;;;;;;;;;;;19.90;44.50;;;;;;5029650;28;19975;-60
2023/12/23 04:28:24;;;;;;;;;;;19.90;44.50;;;;;;5030078;28;19925;-61
2023/12/23 04:30:53;;;;;;;;;;;19.90;44.50;;;;;;5029817;28;20281;-60
2023/12/23 04:33:20;;;;;;;;;;;19.90;44.50;;;;;;5028445;28;19921;-60
2023/12/23 04:35:47;;;;;;;;;;;19.90;44.50;;;;;;5029105;28;20226;-60
2023/12/23 04:38:15;;;;;;;;;;;19.80;44.50;;;;;;5029466;28;19928;-61
2023/12/23 04:40:41;;;;;;;;;;;19.90;44.50;;;;;;5029266;28;19933;-60
2023/12/23 04:43:09;;;;;;;;;;;19.90;44.50;;;;;;5030344;28;19921;-60
2023/12/23 04:45:35;;;;;;;;;;;19.80;44.50;;;;;;5031264;28;19921;-60
2023/12/23 04:48:02;;;;;;;;;;;19.90;44.60;;;;;;5025272;28;19925;-60
2023/12/23 04:50:29;;;;;;;;;;;19.80;44.50;;;;;;5029154;28;19921;-61
2023/12/23 04:52:55;;;;;;;;;;;19.80;44.50;;;;;;5029484;28;19922;-60
2023/12/23 04:55:24;;;;;;;;;;;19.90;44.50;;;;;;5029614;28;19960;-60
2023/12/23 04:57:50;;;;;;;;;;;19.90;44.50;;;;;;5028410;28;19925;-60
2023/12/23 05:00:17;;;;;;;;;;;19.90;44.50;;;;;;5031131;28;19921;-60
2023/12/23 05:02:44;;;;;;;;;;;19.90;44.50;;;;;;5028887;28;19921;-61
2023/12/23 05:05:11;;;;;;;;;;;19.90;44.50;;;;;;5028861;28;19929;-61
2023/12/23 05:07:37;;;;;;;;;;;19.80;44.40;;;;;;5029602;28;20312;-61
2023/12/23 05:10:04;;;;;;;;;;;19.90;44.50;;;;;;5031462;28;19921;-61
2023/12/23 05:12:32;;;;;;;;;;;19.90;44.50;;;;;;5023026;28;19933;-60
2023/12/23 05:14:59;;;;;;;;;;;19.90;44.50;;;;;;5024278;28;19922;-60
2023/12/23 05:17:26;;;;;;;;;;;19.90;44.50;;;;;;5019797;28;19921;-60
2023/12/23 05:19:54;;;;;;;;;;;19.80;44.40;;;;;;5024968;28;19925;-60
2023/12/23 05:22:20;;;;;;;;;;;19.90;44.50;;;;;;5026794;28;19953;-60
2023/12/23 05:24:48;;;;;;;;;;;19.80;44.40;;;;;;5027819;28;19925;-60
2023/12/23 05:27:15;;;;;;;;;;;19.90;44.50;;;;;;5026947;28;19928;-60
2023/12/23 05:29:44;;;;;;;;;;;19.90;44.50;;;;;;5026612;28;20028;-60
2023/12/23 05:32:10;;;;;;;;;;;19.90;44.50;;;;;;5025726;28;19921;-60
2023/12/23 05:34:37;;;;;;;;;;;19.90;44.50;;;;;;5027742;28;19933;-60
2023/12/23 05:37:04;;;;;;;;;;;19.90;44.50;;;;;;5023017;28;19921;-60
2023/12/23 05:39:30;;;;;;;;;;;19.90;44.50;;;;;;5028962;28;19998;-60
2023/12/23 05:41:57;;;;;;;;;;;19.90;44.50;;;;;;5028906;28;19925;-60
2023/12/23 05:44:24;;;;;;;;;;;19.90;44.50;;;;;;5029383;28;19921;-60
2023/12/23 05:46:52;;;;;;;;;;;19.90;44.50;;;;;;5028844;28;19921;-60
2023/12/23 05:49:19;;;;;;;;;;;19.90;44.50;;;;;;5029446;28;19983;-60
2023/12/23 05:51:45;;;;;;;;;;;19.90;44.50;;;;;;5028544;28;19979;-60
2023/12/23 05:54:12;;;;;;;;;;;19.90;44.50;;;;;;5031993;28;19921;-60
2023/12/23 05:56:39;;;;;;;;;;;19.90;44.50;;;;;;5032237;28;19951;-60
2023/12/23 05:59:05;;;;;;;;;;;19.90;44.50;;;;;;5034071;28;19951;-60
2023/12/23 06:01:32;;;;;;;;;;;19.90;44.50;;;;;;5028419;28;19921;-59
2023/12/23 06:04:00;;;;;;;;;;;19.90;44.50;;;;;;5033692;28;19932;-60
2023/12/23 06:06:27;;;;;;;;;;;19.90;44.50;;;;;;5030998;28;19925;-60
2023/12/23 06:08:54;;;;;;;;;;;19.80;44.40;;;;;;5034569;28;19983;-60
2023/12/23 06:11:20;;;;;;;;;;;19.90;44.50;;;;;;5030736;28;19925;-60
2023/12/23 06:13:47;;;;;;;;;;;19.90;44.50;;;;;;5033345;28;20311;-60
2023/12/23 06:16:14;;;;;;;;;;;19.90;44.50;;;;;;5031860;28;19921;-60
2023/12/23 06:18:41;;;;;;;;;;;19.90;44.40;;;;;;5012929;28;19929;-60
2023/12/23 06:21:09;;;;;;;;;;;19.90;44.50;;;;;;5032448;28;19975;-61
2023/12/23 06:23:36;;;;;;;;;;;19.90;45.00;;;;;;5031606;28;20024;-61
2023/12/23 06:26:03;;;;;;;;;;;19.90;44.50;;;;;;5031594;28;19928;-60
2023/12/23 06:28:30;;;;;;;;;;;19.90;44.40;;;;;;5026831;28;19921;-60
2023/12/23 06:30:57;;;;;;;;;;;19.90;44.50;;;;;;5035975;28;19928;-60
2023/12/23 06:33:23;;;;;;;;;;;19.90;44.40;;;;;;5033092;28;19972;-60
2023/12/23 06:35:50;;;;;;;;;;;19.90;44.40;;;;;;5035302;28;19921;-60
2023/12/23 06:38:19;;;;;;;;;;;19.80;44.30;;;;;;5017589;28;19925;-60
2023/12/23 06:40:45;;;;;;;;;;;19.80;44.30;;;;;;5022284;28;19921;-60
2023/12/23 06:43:12;;;;;;;;;;;19.80;44.30;;;;;;5034573;28;19929;-61
2023/12/23 06:45:39;;;;;;;;;;;19.90;44.40;;;;;;5035956;28;19979;-60
2023/12/23 06:48:06;;;;;;;;;;;19.90;44.40;;;;;;5035760;28;19971;-60
2023/12/23 06:50:33;;;;;;;;;;;19.90;44.40;;;;;;5035809;28;19921;-60
2023/12/23 06:52:59;;;;;;;;;;;19.80;44.30;;;;;;5032857;28;19952;-62
2023/12/23 06:55:27;;;;;;;;;;;19.80;44.30;;;;;;5034827;28;19925;-61
2023/12/23 06:57:57;;;;;;;;;;;19.80;44.30;;;;;;5037070;28;19921;-61
2023/12/23 07:00:24;;;;;;;;;;;19.90;44.40;;;;;;5033404;28;19921;-61
2023/12/23 07:02:51;;;;;;;;;;;19.80;44.30;;;;;;5035661;28;19928;-61
2023/12/23 07:05:17;;;;;;;;;;;19.80;44.30;;;;;;5031862;28;20012;-61
2023/12/23 07:07:44;;;;;;;;;;;19.80;44.30;;;;;;5033189;28;19968;-61
2023/12/23 07:10:13;;;;;;;;;;;19.80;44.30;;;;;;5032624;28;19925;-61
2023/12/23 07:12:41;;;;;;;;;;;19.80;44.30;;;;;;5033506;28;19921;-61
2023/12/23 07:15:08;;;;;;;;;;;19.80;44.30;;;;;;5031568;28;19925;-61
2023/12/23 07:17:35;;;;;;;;;;;19.80;44.30;;;;;;5031685;28;19933;-61
2023/12/23 07:20:02;;;;;;;;;;;19.80;44.30;;;;;;5014099;28;19921;-61
2023/12/23 07:22:29;;;;;;;;;;;19.80;44.30;;;;;;5031674;28;19921;-61
2023/12/23 07:24:56;;;;;;;;;;;19.80;44.20;;;;;;5030930;28;19924;-61
2023/12/23 07:27:22;;;;;;;;;;;19.80;44.20;;;;;;5028058;28;19996;-61
2023/12/23 07:29:51;;;;;;;;;;;19.80;44.20;;;;;;5029862;28;19943;-61
2023/12/23 07:32:17;;;;;;;;;;;19.80;44.20;;;;;;5028882;28;19921;-59
2023/12/23 07:34:44;;;;;;;;;;;19.80;44.20;;;;;;5026855;28;19933;-61
2023/12/23 07:37:11;;;;;;;;;;;19.80;44.20;;;;;;5030951;28;19971;-61
2023/12/23 07:39:37;;;;;;;;;;;19.80;44.20;;;;;;5031610;28;19921;-61
2023/12/23 07:42:04;;;;;;;;;;;19.80;44.10;;;;;;5030437;28;19933;-62
2023/12/23 07:44:36;;;;;;;;;;;19.80;44.10;;;;;;5029760;28;19929;-62
2023/12/23 07:47:05;;;;;;;;;;;19.80;44.10;;;;;;5013270;28;19971;-59
2023/12/23 07:49:31;;;;;;;;;;;19.80;44.10;;;;;;5029674;28;19921;-59
2023/12/23 07:51:58;;;;;;;;;;;19.80;44.10;;;;;;5029069;28;19925;-60
2023/12/23 07:54:25;;;;;;;;;;;19.80;44.10;;;;;;5030191;28;19921;-60
2023/12/23 07:56:52;;;;;;;;;;;19.80;44.10;;;;;;5032232;28;19927;-60
2023/12/23 07:59:19;;;;;;;;;;;19.80;44.10;;;;;;5031861;28;19928;-61
2023/12/23 08:01:45;;;;;;;;;;;19.80;44.10;;;;;;5014530;28;19925;-61
2023/12/23 08:04:14;;;;;;;;;;;19.80;44.10;;;;;;5024145;28;19921;-61
2023/12/23 08:06:40;;;;;;;;;;;19.80;44.10;;;;;;5025108;28;19940;-61
2023/12/23 08:09:07;;;;;;;;;;;19.80;44.10;;;;;;5027557;28;19929;-61
2023/12/23 08:11:35;;;;;;;;;;;19.80;44.10;;;;;;5029365;28;20568;-61
2023/12/23 08:14:02;;;;;;;;;;;19.80;44.10;;;;;;5028951;28;19975;-61
2023/12/23 08:16:29;;;;;;;;;;;19.80;44.10;;;;;;5026069;28;20019;-61
2023/12/23 08:18:56;;;;;;;;;;;19.80;44.10;;;;;;5029287;28;19971;-61
2023/12/23 08:21:24;;;;;;;;;;;19.80;44.10;;;;;;5030637;28;19933;-61
2023/12/23 08:23:50;;;;;;;;;;;19.80;44.10;;;;;;5026723;28;19940;-61
2023/12/23 08:26:17;;;;;;;;;;;19.80;44.00;;;;;;5027488;28;19921;-62
2023/12/23 08:28:44;;;;;;;;;;;19.80;44.00;;;;;;5030293;28;19932;-62
2023/12/23 08:31:11;;;;;;;;;;;19.80;44.00;;;;;;5031668;28;19924;-62
2023/12/23 08:33:37;;;;;;;;;;;19.80;44.00;;;;;;5025142;28;19937;-62
2023/12/23 08:36:04;;;;;;;;;;;19.80;44.00;;;;;;5028701;28;20347;-62
2023/12/23 08:38:33;;;;;;;;;;;19.80;43.90;;;;;;5020848;28;19921;-61
2023/12/23 08:40:59;;;;;;;;;;;19.80;43.90;;;;;;5030126;28;19925;-62
2023/12/23 08:43:26;;;;;;;;;;;19.80;43.90;;;;;;5030116;28;19967;-62
2023/12/23 08:45:53;;;;;;;;;;;19.80;43.90;;;;;;5028193;28;19921;-61
2023/12/23 08:48:20;;;;;;;;;;;19.80;43.90;;;;;;5029800;28;19925;-61
2023/12/23 08:50:46;;;;;;;;;;;19.80;43.90;;;;;;5026003;28;19971;-61
2023/12/23 08:53:14;;;;;;;;;;;19.80;43.90;;;;;;5029599;28;19921;-61
2023/12/23 08:55:44;;;;;;;;;;;19.80;43.90;;;;;;5028201;28;19921;-61
2023/12/23 08:58:10;;;;;;;;;;;19.80;43.90;;;;;;5029117;28;19928;-62
2023/12/23 09:00:37;;;;;;;;;;;19.80;44.00;;;;;;5029486;28;19935;-60
2023/12/23 09:03:04;;;;;;;;;;;19.80;44.00;;;;;;5029208;28;19933;-53
2023/12/23 09:05:31;;;;;;;;;;;19.80;44.00;;;;;;5028344;28;19976;-58
2023/12/23 09:07:58;;;;;;;;;;;19.80;43.80;;;;;;5025217;28;19921;-48
2023/12/23 09:10:24;;;;;;;;;;;19.80;43.40;;;;;;5025389;28;19921;-54
2023/12/23 09:12:53;;;;;;;;;;;19.80;42.80;;;;;;5021220;28;19971;-53
2023/12/23 09:15:20;;;;;;;;;;;19.80;42.30;;;;;;5027243;28;19925;-52
2023/12/23 09:17:46;;;;;;;;;;;19.70;42.00;;;;;;5026499;28;19921;-59
2023/12/23 09:20:13;;;;;;;;;;;19.70;41.70;;;;;;5025487;28;19957;-53
2023/12/23 09:22:40;;;;;;;;;;;19.70;41.40;;;;;;5031028;28;19925;-56
2023/12/23 09:25:07;;;;;;;;;;;19.70;41.20;;;;;;5026964;28;19921;-55
2023/12/23 09:27:33;;;;;;;;;;;19.60;41.10;;;;;;5018501;28;19933;-56
2023/12/23 09:30:01;;;;;;;;;;;19.60;41.10;;;;;;5027577;28;20130;-58
2023/12/23 09:32:28;;;;;;;;;;;19.60;41.00;;;;;;5024862;28;20036;-57
2023/12/23 09:34:55;;;;;;;;;;;19.60;41.00;;;;;;5028941;28;20012;-54
2023/12/23 09:37:22;;;;;;;;;;;19.60;40.90;;;;;;5031510;28;19928;-55
2023/12/23 09:39:48;;;;;;;;;;;19.60;40.80;;;;;;5030193;28;19921;-56
2023/12/23 09:42:15;;;;;;;;;;;19.50;40.60;;;;;;5031346;28;19921;-57
2023/12/23 09:44:42;;;;;;;;;;;19.50;40.50;;;;;;5032571;28;19921;-52
2023/12/23 09:47:10;;;;;;;;;;;19.50;40.50;;;;;;5030977;28;19929;-56
2023/12/23 09:49:37;;;;;;;;;;;19.50;40.50;;;;;;5030252;28;19921;-55
2023/12/23 09:52:04;;;;;;;;;;;19.50;40.40;;;;;;5030821;28;19928;-55
2023/12/23 09:54:31;;;;;;;;;;;19.40;40.30;;;;;;5030168;28;19975;-60
2023/12/23 09:56:58;;;;;;;;;;;19.40;40.30;;;;;;5031572;28;19947;-60
2023/12/23 09:59:25;;;;;;;;;;;19.40;40.30;;;;;;5032159;28;19961;-55
2023/12/23 10:01:52;;;;;;;;;;;19.40;40.30;;;;;;5029518;28;19928;-57
2023/12/23 10:04:21;;;;;;;;;;;19.40;40.30;;;;;;5029376;28;19921;-55
2023/12/23 10:06:47;;;;;;;;;;;19.40;40.30;;;;;;5028582;28;19921;-62
2023/12/23 10:09:15;;;;;;;;;;;19.40;40.20;;;;;;5030161;28;19984;-59
2023/12/23 10:11:42;;;;;;;;;;;19.40;40.10;;;;;;5014201;28;19928;-56
2023/12/23 10:14:08;;;;;;;;;;;19.30;40.00;;;;;;5030413;28;19975;-59
2023/12/23 10:16:35;;;;;;;;;;;19.30;40.10;;;;;;5024377;28;19952;-58
2023/12/23 10:19:02;;;;;;;;;;;19.30;40.10;;;;;;5036993;28;19975;-60
2023/12/23 10:21:30;;;;;;;;;;;19.30;40.00;;;;;;5031908;28;20020;-60
2023/12/23 10:23:56;;;;;;;;;;;19.30;36.70;;;;;;5025043;28;19925;-65
2023/12/23 10:26:24;;;;;;;;;;;19.10;35.30;;;;;;5025785;28;19921;-62
2023/12/23 10:28:51;;;;;;;;;;;18.90;34.90;;;;;;5026898;28;19925;-59
2023/12/23 10:31:18;;;;;;;;;;;18.70;34.80;;;;;;5030469;28;19921;-59
2023/12/23 10:33:45;;;;;;;;;;;18.50;35.10;;;;;;5030292;28;19971;-61
2023/12/23 10:36:14;;;;;;;;;;;18.30;35.90;;;;;;5031346;28;19925;-60
2023/12/23 10:38:43;;;;;;;;;;;18.10;35.30;;;;;;5028399;28;20035;-59
2023/12/23 10:41:10;;;;;;;;;;;17.80;35.50;;;;;;5030545;28;19925;-64
2023/12/23 10:43:37;;;;;;;;;;;17.70;35.90;;;;;;5025025;28;19975;-63
2023/12/23 10:46:04;;;;;;;;;;;17.50;37.00;;;;;;5032351;28;19921;-62
2023/12/23 10:48:32;;;;;;;;;;;17.40;37.70;;;;;;5030117;28;19960;-61
2023/12/23 10:50:58;;;;;;;;;;;17.30;38.50;;;;;;5030315;28;19995;-62
2023/12/23 10:53:25;;;;;;;;;;;17.30;39.30;;;;;;5025604;28;19921;-62
2023/12/23 10:55:53;;;;;;;;;;;17.40;40.00;;;;;;5025441;28;19926;-61
2023/12/23 10:58:20;;;;;;;;;;;17.50;40.60;;;;;;5028406;28;19929;-61
2023/12/23 11:00:47;;;;;;;;;;;17.60;40.90;;;;;;5019851;28;19971;-62
2023/12/23 11:03:14;;;;;;;;;;;17.70;41.00;;;;;;5025631;28;20020;-61
2023/12/23 11:05:41;;;;;;;;;;;17.80;41.20;;;;;;5027419;28;19940;-61
2023/12/23 11:08:09;;;;;;;;;;;17.90;41.30;;;;;;5029405;28;19982;-62
2023/12/23 11:10:35;;;;;;;;;;;18.00;41.40;;;;;;5025620;28;19921;-61
2023/12/23 11:13:04;;;;;;;;;;;18.10;41.60;;;;;;5029166;28;19932;-62
2023/12/23 11:15:30;;;;;;;;;;;18.10;41.60;;;;;;5030264;28;19921;-61
2023/12/23 11:17:57;;;;;;;;;;;18.20;41.70;;;;;;5025813;28;19920;-62
2023/12/23 11:20:43;;;;;;;;;;;18.30;41.80;;;;;;5030310;28;20401;-62
2023/12/23 11:23:25;;;;;;;;;;;18.30;41.90;;;;;;5033554;28;20023;-62
2023/12/23 11:25:53;;;;;;;;;;;18.40;41.90;;;;;;5024237;28;19932;-61
2023/12/23 11:28:22;;;;;;;;;;;18.40;41.90;;;;;;5026837;28;20191;-61
2023/12/23 11:30:49;;;;;;;;;;;18.50;42.10;;;;;;5034739;28;19983;-61
2023/12/23 11:33:16;;;;;;;;;;;18.50;42.10;;;;;;5032635;28;20013;-61
2023/12/23 11:35:46;;;;;;;;;;;18.60;42.10;;;;;;5031953;28;19925;-61
2023/12/23 11:38:13;;;;;;;;;;;18.60;42.20;;;;;;5013190;28;19972;-62
2023/12/23 11:40:39;;;;;;;;;;;18.60;42.20;;;;;;5029879;28;19925;-62
2023/12/23 11:43:07;;;;;;;;;;;18.70;42.30;;;;;;5032319;28;19921;-62
2023/12/23 11:45:35;;;;;;;;;;;18.70;42.20;;;;;;5030121;28;19921;-61
2023/12/23 11:48:02;;;;;;;;;;;18.70;42.20;;;;;;5020017;28;19933;-62
2023/12/23 11:50:29;;;;;;;;;;;18.70;42.20;;;;;;5025707;28;19929;-62
2023/12/23 11:52:56;;;;;;;;;;;18.70;42.30;;;;;;5033488;28;19924;-62
2023/12/23 11:55:23;;;;;;;;;;;18.80;42.30;;;;;;5026330;28;19926;-59
2023/12/23 11:57:51;;;;;;;;;;;18.80;42.30;;;;;;5031264;28;19925;-62
2023/12/23 12:00:18;;;;;;;;;;;18.80;42.30;;;;;;5033068;28;19945;-62
2023/12/23 12:02:46;;;;;;;;;;;18.80;42.30;;;;;;5031385;28;19925;-61
2023/12/23 12:05:13;;;;;;;;;;;18.90;42.50;;;;;;5032322;28;19932;-62
2023/12/23 12:07:40;;;;;;;;;;;18.90;42.40;;;;;;5024858;28;19921;-62
2023/12/23 12:10:08;;;;;;;;;;;18.90;42.70;;;;;;5021597;28;19933;-62
2023/12/23 12:12:36;;;;;;;;;;;18.90;42.40;;;;;;5030942;28;19947;-61
2023/12/23 12:15:03;;;;;;;;;;;18.90;42.50;;;;;;5029784;28;19925;-61
2023/12/23 12:17:30;;;;;;;;;;;18.90;42.50;;;;;;5027566;28;19949;-61
2023/12/23 12:19:58;;;;;;;;;;;19.00;42.60;;;;;;5031362;28;19921;-62
2023/12/23 12:22:25;;;;;;;;;;;19.00;42.60;;;;;;5027003;28;19925;-61
2023/12/23 12:24:52;;;;;;;;;;;19.00;42.50;;;;;;5030735;28;19925;-63
2023/12/23 12:27:19;;;;;;;;;;;19.00;42.60;;;;;;5032536;28;19979;-61
2023/12/23 12:29:46;;;;;;;;;;;19.00;42.60;;;;;;5031198;28;19925;-61
2023/12/23 12:32:15;;;;;;;;;;;19.00;42.60;;;;;;5008323;28;19930;-63
2023/12/23 12:34:42;;;;;;;;;;;19.00;42.60;;;;;;5026172;28;20008;-63
2023/12/23 12:37:10;;;;;;;;;;;19.10;42.70;;;;;;5023596;28;20008;-63
2023/12/23 12:39:37;;;;;;;;;;;19.10;42.70;;;;;;5008242;28;19925;-62
2023/12/23 12:42:04;;;;;;;;;;;19.10;42.80;;;;;;5021070;28;20020;-61
2023/12/23 12:44:32;;;;;;;;;;;19.10;42.70;;;;;;5011703;28;20012;-63
2023/12/23 12:46:59;;;;;;;;;;;19.10;42.70;;;;;;5027482;28;19951;-63
2023/12/23 12:49:26;;;;;;;;;;;19.10;42.70;;;;;;5026010;28;19961;-62
2023/12/23 12:51:52;;;;;;;;;;;19.10;42.70;;;;;;5028817;28;19932;-62
2023/12/23 12:54:23;;;;;;;;;;;19.10;42.70;;;;;;5029404;28;19933;-62
2023/12/23 12:56:50;;;;;;;;;;;19.10;42.60;;;;;;5023085;28;19941;-63
2023/12/23 12:59:17;;;;;;;;;;;19.10;42.60;;;;;;5034304;28;20365;-62
2023/12/23 13:01:44;;;;;;;;;;;19.10;42.60;;;;;;5032249;28;19921;-63
2023/12/23 13:04:11;;;;;;;;;;;19.10;42.60;;;;;;5029142;28;19926;-62
2023/12/23 13:06:38;;;;;;;;;;;19.10;42.60;;;;;;5032738;28;19921;-62
2023/12/23 13:09:05;;;;;;;;;;;19.10;42.60;;;;;;5029331;28;19920;-63
2023/12/23 13:11:33;;;;;;;;;;;19.10;42.60;;;;;;5031074;28;19928;-63
2023/12/23 13:14:00;;;;;;;;;;;19.10;42.60;;;;;;5030508;28;20008;-62
2023/12/23 13:16:26;;;;;;;;;;;19.10;42.60;;;;;;5035233;28;19929;-63
2023/12/23 13:18:54;;;;;;;;;;;19.10;42.70;;;;;;5026059;28;19933;-63
2023/12/23 13:21:21;;;;;;;;;;;19.10;42.70;;;;;;5027865;28;19921;-60
2023/12/23 13:23:48;;;;;;;;;;;19.10;42.70;;;;;;5032459;28;20010;-60
2023/12/23 13:26:16;;;;;;;;;;;19.20;42.80;;;;;;5033950;28;19921;-60
2023/12/23 13:28:44;;;;;;;;;;;19.20;42.80;;;;;;5025934;28;20011;-61
2023/12/23 13:31:11;;;;;;;;;;;19.20;42.80;;;;;;5029564;28;19933;-61
2023/12/23 13:33:39;;;;;;;;;;;19.20;42.80;;;;;;5028746;28;19974;-61
2023/12/23 13:36:07;;;;;;;;;;;19.20;42.80;;;;;;5026490;28;19952;-61
2023/12/23 13:38:33;;;;;;;;;;;19.20;42.90;;;;;;5029724;28;20416;-61
2023/12/23 13:41:00;;;;;;;;;;;19.20;42.90;;;;;;5021024;28;19921;-61
2023/12/23 13:43:27;;;;;;;;;;;19.20;42.90;;;;;;5023614;28;19921;-60
2023/12/23 13:45:55;;;;;;;;;;;19.20;42.90;;;;;;5031852;28;19975;-61
2023/12/23 13:48:22;;;;;;;;;;;19.20;42.90;;;;;;5031116;28;19921;-61
2023/12/23 13:50:49;;;;;;;;;;;19.20;42.90;;;;;;5030010;28;19931;-60
2023/12/23 13:53:16;;;;;;;;;;;19.30;43.00;;;;;;5030065;28;19922;-61
2023/12/23 13:55:43;;;;;;;;;;;19.30;43.00;;;;;;5031471;28;19924;-61
2023/12/23 13:58:11;;;;;;;;;;;19.30;43.10;;;;;;5032926;28;19921;-61
2023/12/23 14:00:37;;;;;;;;;;;19.30;43.10;;;;;;5020860;28;19921;-61
2023/12/23 14:03:05;;;;;;;;;;;19.30;43.10;;;;;;5028434;28;19925;-61
2023/12/23 14:05:32;;;;;;;;;;;19.30;43.20;;;;;;5031340;28;19922;-61
2023/12/23 14:07:59;;;;;;;;;;;19.30;43.20;;;;;;5023115;28;19937;-61
2023/12/23 14:10:26;;;;;;;;;;;19.30;43.20;;;;;;5033608;28;19983;-61
2023/12/23 14:12:52;;;;;;;;;;;19.30;43.20;;;;;;5027200;28;19945;-60
2023/12/23 14:15:19;;;;;;;;;;;19.30;43.20;;;;;;5029121;28;19921;-61